sensor_id;sensor_type;location;lat;lon;timestamp;P1;durP1;ratioP1;P2;durP2;ratioP2
39518;SDS011;25200;53.394;10.414;2023-02-01T00:02:16;14.57;;;2.00;;
39518;SDS011;25200;53.394;10.414;2023-02-01T00:04:42;11.52;;;2.20;;
39518;SDS011;25200;53.394;10.414;2023-02-01T00:07:07;13.52;;;1.60;;
39518;SDS011;25200;53.394;10.414;2023-02-01T00:09:33;7.38;;;1.50;;
39518;SDS011;25200;53.394;10.414;2023-02-01T00:11:59;10.30;;;1.55;;
39518;SDS011;25200;53.394;10.414;2023-02-01T00:14:26;7.40;;;1.45;;
39518;SDS011;25200;53.394;10.414;2023-02-01T00:16:52;15.75;;;1.85;;
39518;SDS011;25200;53.394;10.414;2023-02-01T00:19:18;13.10;;;1.90;;
39518;SDS011;25200;53.394;10.414;2023-02-01T00:21:44;22.67;;;3.00;;
39518;SDS011;25200;53.394;10.414;2023-02-01T00:24:10;16.08;;;2.35;;
39518;SDS011;25200;53.394;10.414;2023-02-01T00:26:37;18.88;;;2.55;;
39518;SDS011;25200;53.394;10.414;2023-02-01T00:29:12;30.90;;;3.30;;
39518;SDS011;25200;53.394;10.414;2023-02-01T00:31:40;22.70;;;3.03;;
39518;SDS011;25200;53.394;10.414;2023-02-01T00:34:06;17.42;;;3.10;;
39518;SDS011;25200;53.394;10.414;2023-02-01T00:36:32;22.02;;;3.05;;
39518;SDS011;25200;53.394;10.414;2023-02-01T00:38:58;32.97;;;4.18;;
39518;SDS011;25200;53.394;10.414;2023-02-01T00:41:24;18.75;;;2.85;;
39518;SDS011;25200;53.394;10.414;2023-02-01T00:43:50;18.38;;;3.15;;
39518;SDS011;25200;53.394;10.414;2023-02-01T00:46:17;21.73;;;3.60;;
39518;SDS011;25200;53.394;10.414;2023-02-01T00:48:44;13.50;;;2.70;;
39518;SDS011;25200;53.394;10.414;2023-02-01T00:51:14;25.13;;;3.22;;
39518;SDS011;25200;53.394;10.414;2023-02-01T00:53:44;15.88;;;3.47;;
39518;SDS011;25200;53.394;10.414;2023-02-01T00:56:10;24.13;;;3.42;;
39518;SDS011;25200;53.394;10.414;2023-02-01T00:58:36;27.80;;;3.92;;
39518;SDS011;25200;53.394;10.414;2023-02-01T01:01:06;26.85;;;3.17;;
39518;SDS011;25200;53.394;10.414;2023-02-01T01:03:35;35.22;;;3.72;;
39518;SDS011;25200;53.394;10.414;2023-02-01T01:06:03;20.55;;;3.10;;
39518;SDS011;25200;53.394;10.414;2023-02-01T01:08:31;20.42;;;3.08;;
39518;SDS011;25200;53.394;10.414;2023-02-01T01:10:57;26.85;;;3.63;;
39518;SDS011;25200;53.394;10.414;2023-02-01T01:13:23;20.92;;;3.58;;
39518;SDS011;25200;53.394;10.414;2023-02-01T01:15:48;22.98;;;3.20;;
39518;SDS011;25200;53.394;10.414;2023-02-01T01:18:14;16.88;;;2.75;;
39518;SDS011;25200;53.394;10.414;2023-02-01T01:20:40;19.00;;;3.60;;
39518;SDS011;25200;53.394;10.414;2023-02-01T01:23:07;26.65;;;3.40;;
39518;SDS011;25200;53.394;10.414;2023-02-01T01:25:36;24.38;;;3.13;;
39518;SDS011;25200;53.394;10.414;2023-02-01T01:28:05;20.98;;;3.55;;
39518;SDS011;25200;53.394;10.414;2023-02-01T01:30:33;21.73;;;4.03;;
39518;SDS011;25200;53.394;10.414;2023-02-01T01:32:59;21.85;;;3.33;;
39518;SDS011;25200;53.394;10.414;2023-02-01T01:35:25;19.45;;;3.03;;
39518;SDS011;25200;53.394;10.414;2023-02-01T01:37:51;22.00;;;3.60;;
39518;SDS011;25200;53.394;10.414;2023-02-01T01:40:16;22.60;;;3.20;;
39518;SDS011;25200;53.394;10.414;2023-02-01T01:42:43;22.35;;;3.53;;
39518;SDS011;25200;53.394;10.414;2023-02-01T01:45:30;21.77;;;3.35;;
39518;SDS011;25200;53.394;10.414;2023-02-01T01:48:04;21.52;;;3.58;;
39518;SDS011;25200;53.394;10.414;2023-02-01T01:50:48;15.70;;;2.60;;
39518;SDS011;25200;53.394;10.414;2023-02-01T01:53:20;17.80;;;2.90;;
39518;SDS011;25200;53.394;10.414;2023-02-01T01:55:51;24.65;;;3.70;;
39518;SDS011;25200;53.394;10.414;2023-02-01T01:58:21;16.35;;;2.47;;
39518;SDS011;25200;53.394;10.414;2023-02-01T02:00:50;16.58;;;3.22;;
39518;SDS011;25200;53.394;10.414;2023-02-01T02:05:41;28.08;;;3.75;;
39518;SDS011;25200;53.394;10.414;2023-02-01T02:08:07;21.10;;;3.10;;
39518;SDS011;25200;53.394;10.414;2023-02-01T02:10:33;21.92;;;3.25;;
39518;SDS011;25200;53.394;10.414;2023-02-01T02:13:17;18.55;;;2.80;;
39518;SDS011;25200;53.394;10.414;2023-02-01T02:15:46;22.23;;;3.63;;
39518;SDS011;25200;53.394;10.414;2023-02-01T02:18:25;18.63;;;3.35;;
39518;SDS011;25200;53.394;10.414;2023-02-01T02:21:17;21.58;;;3.72;;
39518;SDS011;25200;53.394;10.414;2023-02-01T02:27:16;23.27;;;2.92;;
39518;SDS011;25200;53.394;10.414;2023-02-01T02:32:40;26.58;;;3.30;;
39518;SDS011;25200;53.394;10.414;2023-02-01T02:40:37;25.13;;;3.30;;
39518;SDS011;25200;53.394;10.414;2023-02-01T02:43:21;23.50;;;3.53;;
39518;SDS011;25200;53.394;10.414;2023-02-01T02:46:16;24.20;;;4.00;;
39518;SDS011;25200;53.394;10.414;2023-02-01T02:49:20;21.67;;;4.07;;
39518;SDS011;25200;53.394;10.414;2023-02-01T02:51:47;27.95;;;4.13;;
39518;SDS011;25200;53.394;10.414;2023-02-01T02:54:51;16.08;;;3.60;;
39518;SDS011;25200;53.394;10.414;2023-02-01T02:57:38;23.15;;;3.47;;
39518;SDS011;25200;53.394;10.414;2023-02-01T03:00:30;24.63;;;3.75;;
39518;SDS011;25200;53.394;10.414;2023-02-01T03:03:17;21.80;;;3.08;;
39518;SDS011;25200;53.394;10.414;2023-02-01T03:06:01;20.27;;;3.28;;
39518;SDS011;25200;53.394;10.414;2023-02-01T03:08:27;18.88;;;2.83;;
39518;SDS011;25200;53.394;10.414;2023-02-01T03:11:05;21.42;;;3.08;;
39518;SDS011;25200;53.394;10.414;2023-02-01T03:21:13;19.85;;;2.33;;
39518;SDS011;25200;53.394;10.414;2023-02-01T03:23:46;14.23;;;2.33;;
39518;SDS011;25200;53.394;10.414;2023-02-01T03:26:14;17.75;;;2.50;;
39518;SDS011;25200;53.394;10.414;2023-02-01T03:28:46;15.13;;;3.00;;
39518;SDS011;25200;53.394;10.414;2023-02-01T03:31:17;19.05;;;2.95;;
39518;SDS011;25200;53.394;10.414;2023-02-01T03:33:43;16.27;;;2.83;;
39518;SDS011;25200;53.394;10.414;2023-02-01T03:39:05;19.60;;;3.40;;
39518;SDS011;25200;53.394;10.414;2023-02-01T03:41:52;24.13;;;3.80;;
39518;SDS011;25200;53.394;10.414;2023-02-01T03:49:46;11.98;;;2.17;;
39518;SDS011;25200;53.394;10.414;2023-02-01T03:52:24;17.95;;;3.30;;
39518;SDS011;25200;53.394;10.414;2023-02-01T03:54:55;22.40;;;2.88;;
39518;SDS011;25200;53.394;10.414;2023-02-01T03:57:25;12.27;;;2.35;;
39518;SDS011;25200;53.394;10.414;2023-02-01T03:59:54;17.13;;;3.22;;
39518;SDS011;25200;53.394;10.414;2023-02-01T04:02:33;25.15;;;3.13;;
39518;SDS011;25200;53.394;10.414;2023-02-01T04:04:59;20.08;;;2.78;;
39518;SDS011;25200;53.394;10.414;2023-02-01T04:07:24;22.10;;;2.80;;
39518;SDS011;25200;53.394;10.414;2023-02-01T04:09:50;16.55;;;2.95;;
39518;SDS011;25200;53.394;10.414;2023-02-01T04:12:16;16.45;;;2.53;;
39518;SDS011;25200;53.394;10.414;2023-02-01T04:14:42;14.43;;;2.20;;
39518;SDS011;25200;53.394;10.414;2023-02-01T04:17:07;14.63;;;2.50;;
39518;SDS011;25200;53.394;10.414;2023-02-01T04:19:33;12.40;;;2.28;;
39518;SDS011;25200;53.394;10.414;2023-02-01T04:21:58;18.63;;;2.90;;
39518;SDS011;25200;53.394;10.414;2023-02-01T04:24:24;12.50;;;2.33;;
39518;SDS011;25200;53.394;10.414;2023-02-01T04:26:50;19.35;;;4.07;;
39518;SDS011;25200;53.394;10.414;2023-02-01T04:29:15;13.20;;;2.78;;
39518;SDS011;25200;53.394;10.414;2023-02-01T04:31:41;17.17;;;2.58;;
39518;SDS011;25200;53.394;10.414;2023-02-01T04:34:07;11.27;;;2.50;;
39518;SDS011;25200;53.394;10.414;2023-02-01T04:36:32;10.10;;;2.70;;
39518;SDS011;25200;53.394;10.414;2023-02-01T04:38:58;13.95;;;2.45;;
39518;SDS011;25200;53.394;10.414;2023-02-01T04:41:23;7.68;;;1.98;;
39518;SDS011;25200;53.394;10.414;2023-02-01T04:43:49;9.07;;;1.88;;
39518;SDS011;25200;53.394;10.414;2023-02-01T04:46:17;9.55;;;1.70;;
39518;SDS011;25200;53.394;10.414;2023-02-01T04:48:43;7.45;;;1.40;;
39518;SDS011;25200;53.394;10.414;2023-02-01T04:51:09;8.13;;;1.77;;
39518;SDS011;25200;53.394;10.414;2023-02-01T04:53:35;3.95;;;1.00;;
39518;SDS011;25200;53.394;10.414;2023-02-01T04:56:01;8.93;;;1.73;;
39518;SDS011;25200;53.394;10.414;2023-02-01T04:58:26;10.60;;;1.88;;
39518;SDS011;25200;53.394;10.414;2023-02-01T05:00:52;7.47;;;1.60;;
39518;SDS011;25200;53.394;10.414;2023-02-01T05:03:18;11.02;;;1.75;;
39518;SDS011;25200;53.394;10.414;2023-02-01T05:05:44;10.88;;;1.75;;
39518;SDS011;25200;53.394;10.414;2023-02-01T05:08:13;9.90;;;1.38;;
39518;SDS011;25200;53.394;10.414;2023-02-01T05:10:38;7.97;;;1.83;;
39518;SDS011;25200;53.394;10.414;2023-02-01T05:13:04;8.38;;;1.92;;
39518;SDS011;25200;53.394;10.414;2023-02-01T05:15:49;8.25;;;1.20;;
39518;SDS011;25200;53.394;10.414;2023-02-01T05:18:15;11.60;;;1.13;;
39518;SDS011;25200;53.394;10.414;2023-02-01T05:20:41;10.75;;;2.00;;
39518;SDS011;25200;53.394;10.414;2023-02-01T05:23:07;6.05;;;1.23;;
39518;SDS011;25200;53.394;10.414;2023-02-01T05:25:32;4.85;;;1.50;;
39518;SDS011;25200;53.394;10.414;2023-02-01T05:27:58;5.28;;;1.52;;
39518;SDS011;25200;53.394;10.414;2023-02-01T05:30:24;5.95;;;1.25;;
39518;SDS011;25200;53.394;10.414;2023-02-01T05:32:52;2.17;;;0.63;;
39518;SDS011;25200;53.394;10.414;2023-02-01T05:35:18;1.77;;;0.68;;
39518;SDS011;25200;53.394;10.414;2023-02-01T05:37:44;2.30;;;0.70;;
39518;SDS011;25200;53.394;10.414;2023-02-01T05:40:10;5.47;;;1.13;;
39518;SDS011;25200;53.394;10.414;2023-02-01T05:42:36;2.15;;;0.90;;
39518;SDS011;25200;53.394;10.414;2023-02-01T05:45:02;5.00;;;1.20;;
39518;SDS011;25200;53.394;10.414;2023-02-01T05:47:30;2.30;;;0.90;;
39518;SDS011;25200;53.394;10.414;2023-02-01T05:49:55;2.42;;;0.80;;
39518;SDS011;25200;53.394;10.414;2023-02-01T05:52:21;3.55;;;0.88;;
39518;SDS011;25200;53.394;10.414;2023-02-01T05:54:47;2.50;;;1.10;;
39518;SDS011;25200;53.394;10.414;2023-02-01T05:57:13;1.75;;;0.68;;
39518;SDS011;25200;53.394;10.414;2023-02-01T05:59:39;2.25;;;0.77;;
39518;SDS011;25200;53.394;10.414;2023-02-01T06:02:10;2.03;;;0.52;;
39518;SDS011;25200;53.394;10.414;2023-02-01T06:04:36;1.38;;;0.50;;
39518;SDS011;25200;53.394;10.414;2023-02-01T06:07:02;0.60;;;0.22;;
39518;SDS011;25200;53.394;10.414;2023-02-01T06:09:28;6.18;;;0.68;;
39518;SDS011;25200;53.394;10.414;2023-02-01T06:11:53;3.95;;;0.88;;
39518;SDS011;25200;53.394;10.414;2023-02-01T06:14:19;4.13;;;1.05;;
39518;SDS011;25200;53.394;10.414;2023-02-01T06:16:45;1.65;;;0.93;;
39518;SDS011;25200;53.394;10.414;2023-02-01T06:19:11;1.50;;;0.60;;
39518;SDS011;25200;53.394;10.414;2023-02-01T06:21:38;3.97;;;0.65;;
39518;SDS011;25200;53.394;10.414;2023-02-01T06:24:03;1.73;;;0.60;;
39518;SDS011;25200;53.394;10.414;2023-02-01T06:26:29;1.65;;;0.88;;
39518;SDS011;25200;53.394;10.414;2023-02-01T06:28:55;1.17;;;0.45;;
39518;SDS011;25200;53.394;10.414;2023-02-01T06:31:21;1.48;;;0.50;;
39518;SDS011;25200;53.394;10.414;2023-02-01T06:33:47;1.20;;;0.45;;
39518;SDS011;25200;53.394;10.414;2023-02-01T06:36:14;1.98;;;0.60;;
39518;SDS011;25200;53.394;10.414;2023-02-01T06:38:41;1.33;;;0.60;;
39518;SDS011;25200;53.394;10.414;2023-02-01T06:41:06;3.13;;;0.85;;
39518;SDS011;25200;53.394;10.414;2023-02-01T06:43:32;2.25;;;0.70;;
39518;SDS011;25200;53.394;10.414;2023-02-01T06:45:59;3.28;;;0.52;;
39518;SDS011;25200;53.394;10.414;2023-02-01T06:48:26;2.00;;;0.65;;
39518;SDS011;25200;53.394;10.414;2023-02-01T06:50:51;1.02;;;0.52;;
39518;SDS011;25200;53.394;10.414;2023-02-01T06:53:17;1.85;;;0.70;;
39518;SDS011;25200;53.394;10.414;2023-02-01T06:55:51;4.13;;;0.93;;
39518;SDS011;25200;53.394;10.414;2023-02-01T06:58:30;4.57;;;1.00;;
39518;SDS011;25200;53.394;10.414;2023-02-01T07:00:58;5.18;;;1.15;;
39518;SDS011;25200;53.394;10.414;2023-02-01T07:03:29;3.33;;;0.60;;
39518;SDS011;25200;53.394;10.414;2023-02-01T07:05:55;4.00;;;1.00;;
39518;SDS011;25200;53.394;10.414;2023-02-01T07:08:23;7.13;;;1.27;;
39518;SDS011;25200;53.394;10.414;2023-02-01T07:10:49;4.72;;;0.85;;
39518;SDS011;25200;53.394;10.414;2023-02-01T07:13:15;5.30;;;1.00;;
39518;SDS011;25200;53.394;10.414;2023-02-01T07:15:41;5.28;;;1.50;;
39518;SDS011;25200;53.394;10.414;2023-02-01T07:18:06;6.47;;;1.10;;
39518;SDS011;25200;53.394;10.414;2023-02-01T07:20:32;12.40;;;1.77;;
39518;SDS011;25200;53.394;10.414;2023-02-01T07:22:58;8.27;;;1.67;;
39518;SDS011;25200;53.394;10.414;2023-02-01T07:25:23;6.30;;;1.52;;
39518;SDS011;25200;53.394;10.414;2023-02-01T07:27:49;10.20;;;1.63;;
39518;SDS011;25200;53.394;10.414;2023-02-01T07:30:15;9.75;;;1.42;;
39518;SDS011;25200;53.394;10.414;2023-02-01T07:32:41;11.27;;;1.60;;
39518;SDS011;25200;53.394;10.414;2023-02-01T07:35:06;8.57;;;1.83;;
39518;SDS011;25200;53.394;10.414;2023-02-01T07:37:32;7.75;;;1.55;;
39518;SDS011;25200;53.394;10.414;2023-02-01T07:39:58;9.35;;;1.80;;
39518;SDS011;25200;53.394;10.414;2023-02-01T07:42:24;6.90;;;1.88;;
39518;SDS011;25200;53.394;10.414;2023-02-01T07:44:49;8.07;;;1.70;;
39518;SDS011;25200;53.394;10.414;2023-02-01T07:47:15;11.73;;;1.88;;
39518;SDS011;25200;53.394;10.414;2023-02-01T07:49:40;7.53;;;1.45;;
39518;SDS011;25200;53.394;10.414;2023-02-01T07:52:06;9.40;;;1.60;;
39518;SDS011;25200;53.394;10.414;2023-02-01T07:54:32;9.70;;;1.90;;
39518;SDS011;25200;53.394;10.414;2023-02-01T07:56:57;8.70;;;2.00;;
39518;SDS011;25200;53.394;10.414;2023-02-01T07:59:23;11.38;;;2.28;;
39518;SDS011;25200;53.394;10.414;2023-02-01T08:01:49;15.00;;;2.42;;
39518;SDS011;25200;53.394;10.414;2023-02-01T08:04:14;17.00;;;2.35;;
39518;SDS011;25200;53.394;10.414;2023-02-01T08:06:40;14.75;;;2.33;;
39518;SDS011;25200;53.394;10.414;2023-02-01T08:09:06;12.00;;;2.28;;
39518;SDS011;25200;53.394;10.414;2023-02-01T08:11:36;18.48;;;3.33;;
39518;SDS011;25200;53.394;10.414;2023-02-01T08:14:02;9.25;;;2.05;;
39518;SDS011;25200;53.394;10.414;2023-02-01T08:16:29;17.02;;;2.60;;
39518;SDS011;25200;53.394;10.414;2023-02-01T08:18:55;14.75;;;2.08;;
39518;SDS011;25200;53.394;10.414;2023-02-01T08:21:22;13.02;;;2.65;;
39518;SDS011;25200;53.394;10.414;2023-02-01T08:23:50;12.98;;;2.45;;
39518;SDS011;25200;53.394;10.414;2023-02-01T08:26:18;16.95;;;2.80;;
39518;SDS011;25200;53.394;10.414;2023-02-01T08:28:47;22.25;;;3.08;;
39518;SDS011;25200;53.394;10.414;2023-02-01T08:31:24;28.58;;;3.40;;
39518;SDS011;25200;53.394;10.414;2023-02-01T08:33:52;21.05;;;3.80;;
39518;SDS011;25200;53.394;10.414;2023-02-01T08:36:20;24.80;;;2.88;;
39518;SDS011;25200;53.394;10.414;2023-02-01T08:38:46;24.58;;;2.97;;
39518;SDS011;25200;53.394;10.414;2023-02-01T08:41:14;23.83;;;2.85;;
39518;SDS011;25200;53.394;10.414;2023-02-01T08:43:41;30.98;;;4.00;;
39518;SDS011;25200;53.394;10.414;2023-02-01T08:46:07;22.05;;;3.10;;
39518;SDS011;25200;53.394;10.414;2023-02-01T08:48:34;19.42;;;2.30;;
39518;SDS011;25200;53.394;10.414;2023-02-01T08:51:00;27.52;;;3.22;;
39518;SDS011;25200;53.394;10.414;2023-02-01T08:53:28;20.77;;;3.03;;
39518;SDS011;25200;53.394;10.414;2023-02-01T08:55:54;19.25;;;2.85;;
39518;SDS011;25200;53.394;10.414;2023-02-01T08:58:19;17.27;;;3.00;;
39518;SDS011;25200;53.394;10.414;2023-02-01T09:00:46;16.88;;;3.30;;
39518;SDS011;25200;53.394;10.414;2023-02-01T09:03:13;18.52;;;2.72;;
39518;SDS011;25200;53.394;10.414;2023-02-01T09:05:38;17.67;;;3.47;;
39518;SDS011;25200;53.394;10.414;2023-02-01T09:08:04;14.90;;;2.65;;
39518;SDS011;25200;53.394;10.414;2023-02-01T09:10:30;16.63;;;2.90;;
39518;SDS011;25200;53.394;10.414;2023-02-01T09:12:56;20.52;;;3.45;;
39518;SDS011;25200;53.394;10.414;2023-02-01T09:15:22;17.00;;;3.03;;
39518;SDS011;25200;53.394;10.414;2023-02-01T09:17:47;19.65;;;2.50;;
39518;SDS011;25200;53.394;10.414;2023-02-01T09:20:14;18.23;;;3.63;;
39518;SDS011;25200;53.394;10.414;2023-02-01T09:22:40;15.55;;;2.58;;
39518;SDS011;25200;53.394;10.414;2023-02-01T09:25:06;15.15;;;2.78;;
39518;SDS011;25200;53.394;10.414;2023-02-01T09:27:32;16.02;;;3.20;;
39518;SDS011;25200;53.394;10.414;2023-02-01T09:29:58;19.08;;;2.53;;
39518;SDS011;25200;53.394;10.414;2023-02-01T09:32:24;15.30;;;2.70;;
39518;SDS011;25200;53.394;10.414;2023-02-01T09:34:50;14.15;;;2.53;;
39518;SDS011;25200;53.394;10.414;2023-02-01T09:37:17;24.00;;;3.83;;
39518;SDS011;25200;53.394;10.414;2023-02-01T09:39:42;25.52;;;5.25;;
39518;SDS011;25200;53.394;10.414;2023-02-01T09:42:16;23.67;;;3.83;;
39518;SDS011;25200;53.394;10.414;2023-02-01T09:48:15;20.92;;;4.22;;
39518;SDS011;25200;53.394;10.414;2023-02-01T09:50:47;12.98;;;2.47;;
39518;SDS011;25200;53.394;10.414;2023-02-01T09:56:11;12.93;;;2.33;;
39518;SDS011;25200;53.394;10.414;2023-02-01T10:01:21;18.38;;;2.58;;
39518;SDS011;25200;53.394;10.414;2023-02-01T10:03:49;25.95;;;3.33;;
39518;SDS011;25200;53.394;10.414;2023-02-01T10:06:30;15.63;;;2.80;;
39518;SDS011;25200;53.394;10.414;2023-02-01T10:09:14;20.00;;;2.92;;
39518;SDS011;25200;53.394;10.414;2023-02-01T10:22:43;23.35;;;3.72;;
39518;SDS011;25200;53.394;10.414;2023-02-01T10:25:28;9.20;;;1.85;;
39518;SDS011;25200;53.394;10.414;2023-02-01T10:28:18;14.30;;;2.70;;
39518;SDS011;25200;53.394;10.414;2023-02-01T10:30:46;12.07;;;2.50;;
39518;SDS011;25200;53.394;10.414;2023-02-01T10:33:27;15.55;;;2.65;;
39518;SDS011;25200;53.394;10.414;2023-02-01T10:36:00;13.15;;;3.05;;
39518;SDS011;25200;53.394;10.414;2023-02-01T10:41:01;13.02;;;2.53;;
39518;SDS011;25200;53.394;10.414;2023-02-01T10:43:29;16.70;;;2.75;;
39518;SDS011;25200;53.394;10.414;2023-02-01T10:45:55;20.35;;;2.63;;
39518;SDS011;25200;53.394;10.414;2023-02-01T10:48:22;19.63;;;2.42;;
39518;SDS011;25200;53.394;10.414;2023-02-01T10:50:49;14.02;;;2.08;;
39518;SDS011;25200;53.394;10.414;2023-02-01T10:53:25;13.95;;;2.38;;
39518;SDS011;25200;53.394;10.414;2023-02-01T10:55:54;11.98;;;2.33;;
39518;SDS011;25200;53.394;10.414;2023-02-01T11:00:57;17.65;;;2.90;;
39518;SDS011;25200;53.394;10.414;2023-02-01T11:08:56;18.40;;;3.90;;
39518;SDS011;25200;53.394;10.414;2023-02-01T11:11:24;15.70;;;2.65;;
39518;SDS011;25200;53.394;10.414;2023-02-01T11:13:54;18.33;;;2.50;;
39518;SDS011;25200;53.394;10.414;2023-02-01T11:16:29;15.77;;;2.50;;
39518;SDS011;25200;53.394;10.414;2023-02-01T11:18:58;12.75;;;2.58;;
39518;SDS011;25200;53.394;10.414;2023-02-01T11:21:24;17.52;;;3.10;;
39518;SDS011;25200;53.394;10.414;2023-02-01T11:23:50;21.35;;;3.20;;
39518;SDS011;25200;53.394;10.414;2023-02-01T11:26:23;22.77;;;3.13;;
39518;SDS011;25200;53.394;10.414;2023-02-01T11:28:52;13.52;;;2.25;;
39518;SDS011;25200;53.394;10.414;2023-02-01T11:31:24;19.75;;;2.72;;
39518;SDS011;25200;53.394;10.414;2023-02-01T11:33:58;17.13;;;2.72;;
39518;SDS011;25200;53.394;10.414;2023-02-01T11:36:33;16.35;;;2.47;;
39518;SDS011;25200;53.394;10.414;2023-02-01T11:44:26;18.77;;;2.88;;
39518;SDS011;25200;53.394;10.414;2023-02-01T11:46:56;17.48;;;2.60;;
39518;SDS011;25200;53.394;10.414;2023-02-01T11:49:44;20.58;;;2.95;;
39518;SDS011;25200;53.394;10.414;2023-02-01T11:52:18;18.35;;;2.60;;
39518;SDS011;25200;53.394;10.414;2023-02-01T11:54:53;17.10;;;2.90;;
39518;SDS011;25200;53.394;10.414;2023-02-01T12:03:04;10.43;;;1.58;;
39518;SDS011;25200;53.394;10.414;2023-02-01T12:08:26;11.82;;;2.20;;
39518;SDS011;25200;53.394;10.414;2023-02-01T12:13:31;8.25;;;1.90;;
39518;SDS011;25200;53.394;10.414;2023-02-01T12:16:22;6.10;;;1.60;;
39518;SDS011;25200;53.394;10.414;2023-02-01T12:19:16;14.27;;;2.22;;
39518;SDS011;25200;53.394;10.414;2023-02-01T12:22:03;13.38;;;2.60;;
39518;SDS011;25200;53.394;10.414;2023-02-01T12:24:42;8.65;;;1.88;;
39518;SDS011;25200;53.394;10.414;2023-02-01T12:35:27;13.15;;;2.38;;
39518;SDS011;25200;53.394;10.414;2023-02-01T12:40:35;11.18;;;2.00;;
39518;SDS011;25200;53.394;10.414;2023-02-01T12:43:45;11.05;;;1.75;;
39518;SDS011;25200;53.394;10.414;2023-02-01T12:46:37;8.55;;;2.42;;
39518;SDS011;25200;53.394;10.414;2023-02-01T12:49:20;5.03;;;2.10;;
39518;SDS011;25200;53.394;10.414;2023-02-01T12:51:54;3.80;;;1.20;;
39518;SDS011;25200;53.394;10.414;2023-02-01T12:54:34;5.53;;;1.40;;
39518;SDS011;25200;53.394;10.414;2023-02-01T12:57:08;5.20;;;1.20;;
39518;SDS011;25200;53.394;10.414;2023-02-01T12:59:51;3.00;;;1.05;;
39518;SDS011;25200;53.394;10.414;2023-02-01T13:02:31;4.85;;;1.40;;
39518;SDS011;25200;53.394;10.414;2023-02-01T13:05:14;2.53;;;0.82;;
39518;SDS011;25200;53.394;10.414;2023-02-01T13:07:58;1.38;;;0.45;;
39518;SDS011;25200;53.394;10.414;2023-02-01T13:10:34;3.63;;;0.57;;
39518;SDS011;25200;53.394;10.414;2023-02-01T13:13:14;0.17;;;0.10;;
39518;SDS011;25200;53.394;10.414;2023-02-01T13:15:44;0.80;;;0.47;;
39518;SDS011;25200;53.394;10.414;2023-02-01T13:18:18;1.55;;;0.38;;
39518;SDS011;25200;53.394;10.414;2023-02-01T13:25:50;2.30;;;0.80;;
39518;SDS011;25200;53.394;10.414;2023-02-01T13:33:25;1.63;;;0.40;;
39518;SDS011;25200;53.394;10.414;2023-02-01T13:41:55;1.98;;;0.45;;
39518;SDS011;25200;53.394;10.414;2023-02-01T13:46:58;1.10;;;0.35;;
39518;SDS011;25200;53.394;10.414;2023-02-01T13:49:28;3.38;;;0.60;;
39518;SDS011;25200;53.394;10.414;2023-02-01T13:51:56;1.70;;;0.60;;
39518;SDS011;25200;53.394;10.414;2023-02-01T13:56:57;1.52;;;0.57;;
39518;SDS011;25200;53.394;10.414;2023-02-01T14:08:11;1.48;;;0.32;;
39518;SDS011;25200;53.394;10.414;2023-02-01T14:10:48;1.55;;;0.60;;
39518;SDS011;25200;53.394;10.414;2023-02-01T14:26:18;2.35;;;0.80;;
39518;SDS011;25200;53.394;10.414;2023-02-01T14:31:29;4.70;;;0.90;;
39518;SDS011;25200;53.394;10.414;2023-02-01T14:34:00;3.88;;;1.10;;
39518;SDS011;25200;53.394;10.414;2023-02-01T14:36:38;5.13;;;0.77;;
39518;SDS011;25200;53.394;10.414;2023-02-01T14:39:21;0.82;;;0.45;;
39518;SDS011;25200;53.394;10.414;2023-02-01T14:41:55;5.47;;;1.15;;
39518;SDS011;25200;53.394;10.414;2023-02-01T14:44:31;4.25;;;1.23;;
39518;SDS011;25200;53.394;10.414;2023-02-01T14:49:56;4.72;;;1.10;;
39518;SDS011;25200;53.394;10.414;2023-02-01T14:55:20;2.38;;;0.73;;
39518;SDS011;25200;53.394;10.414;2023-02-01T14:57:56;5.10;;;1.10;;
39518;SDS011;25200;53.394;10.414;2023-02-01T15:00:28;5.18;;;1.15;;
39518;SDS011;25200;53.394;10.414;2023-02-01T15:05:39;5.63;;;1.10;;
39518;SDS011;25200;53.394;10.414;2023-02-01T15:08:10;4.55;;;0.77;;
39518;SDS011;25200;53.394;10.414;2023-02-01T15:10:43;5.03;;;0.77;;
39518;SDS011;25200;53.394;10.414;2023-02-01T15:13:27;3.03;;;1.00;;
39518;SDS011;25200;53.394;10.414;2023-02-01T15:16:15;6.75;;;0.90;;
39518;SDS011;25200;53.394;10.414;2023-02-01T15:18:40;6.05;;;1.05;;
39518;SDS011;25200;53.394;10.414;2023-02-01T15:21:14;5.30;;;1.17;;
39518;SDS011;25200;53.394;10.414;2023-02-01T15:23:43;3.80;;;1.17;;
39518;SDS011;25200;53.394;10.414;2023-02-01T15:26:10;9.35;;;1.42;;
39518;SDS011;25200;53.394;10.414;2023-02-01T15:28:48;11.27;;;1.55;;
39518;SDS011;25200;53.394;10.414;2023-02-01T15:31:14;11.50;;;1.83;;
39518;SDS011;25200;53.394;10.414;2023-02-01T15:33:55;8.00;;;1.45;;
39518;SDS011;25200;53.394;10.414;2023-02-01T15:36:22;13.25;;;2.00;;
39518;SDS011;25200;53.394;10.414;2023-02-01T15:39:10;5.75;;;1.20;;
39518;SDS011;25200;53.394;10.414;2023-02-01T15:41:49;10.35;;;1.85;;
39518;SDS011;25200;53.394;10.414;2023-02-01T15:44:28;11.45;;;1.83;;
39518;SDS011;25200;53.394;10.414;2023-02-01T15:46:54;16.13;;;1.98;;
39518;SDS011;25200;53.394;10.414;2023-02-01T15:51:46;8.32;;;1.80;;
39518;SDS011;25200;53.394;10.414;2023-02-01T15:54:15;7.43;;;1.73;;
39518;SDS011;25200;53.394;10.414;2023-02-01T15:56:50;8.98;;;1.48;;
39518;SDS011;25200;53.394;10.414;2023-02-01T15:59:19;12.85;;;1.67;;
39518;SDS011;25200;53.394;10.414;2023-02-01T16:01:53;7.75;;;1.55;;
39518;SDS011;25200;53.394;10.414;2023-02-01T16:04:23;6.25;;;1.67;;
39518;SDS011;25200;53.394;10.414;2023-02-01T16:06:51;6.15;;;1.15;;
39518;SDS011;25200;53.394;10.414;2023-02-01T16:09:20;9.75;;;1.50;;
39518;SDS011;25200;53.394;10.414;2023-02-01T16:11:56;6.85;;;1.58;;
39518;SDS011;25200;53.394;10.414;2023-02-01T16:14:23;8.07;;;1.65;;
39518;SDS011;25200;53.394;10.414;2023-02-01T16:16:51;10.05;;;1.67;;
39518;SDS011;25200;53.394;10.414;2023-02-01T16:19:18;9.35;;;1.63;;
39518;SDS011;25200;53.394;10.414;2023-02-01T16:21:44;9.10;;;1.73;;
39518;SDS011;25200;53.394;10.414;2023-02-01T16:24:10;8.70;;;1.60;;
39518;SDS011;25200;53.394;10.414;2023-02-01T16:26:36;10.27;;;1.50;;
39518;SDS011;25200;53.394;10.414;2023-02-01T16:29:03;10.18;;;2.00;;
39518;SDS011;25200;53.394;10.414;2023-02-01T16:31:31;10.90;;;1.58;;
39518;SDS011;25200;53.394;10.414;2023-02-01T16:33:59;12.90;;;2.05;;
39518;SDS011;25200;53.394;10.414;2023-02-01T16:36:25;12.43;;;1.80;;
39518;SDS011;25200;53.394;10.414;2023-02-01T16:38:53;12.57;;;2.35;;
39518;SDS011;25200;53.394;10.414;2023-02-01T16:41:20;16.90;;;2.20;;
39518;SDS011;25200;53.394;10.414;2023-02-01T16:43:53;8.38;;;1.83;;
39518;SDS011;25200;53.394;10.414;2023-02-01T16:46:24;12.27;;;2.15;;
39518;SDS011;25200;53.394;10.414;2023-02-01T16:48:52;17.52;;;2.13;;
39518;SDS011;25200;53.394;10.414;2023-02-01T16:51:19;17.45;;;2.33;;
39518;SDS011;25200;53.394;10.414;2023-02-01T16:53:46;10.95;;;2.20;;
39518;SDS011;25200;53.394;10.414;2023-02-01T16:56:15;15.38;;;2.45;;
39518;SDS011;25200;53.394;10.414;2023-02-01T16:58:45;18.70;;;2.53;;
39518;SDS011;25200;53.394;10.414;2023-02-01T17:01:12;10.32;;;2.20;;
39518;SDS011;25200;53.394;10.414;2023-02-01T17:03:39;15.65;;;2.30;;
39518;SDS011;25200;53.394;10.414;2023-02-01T17:06:06;8.85;;;1.75;;
39518;SDS011;25200;53.394;10.414;2023-02-01T17:08:35;12.90;;;2.60;;